sensor_id;sensor_type;location;lat;lon;timestamp;P1;durP1;ratioP1;P2;durP2;ratioP2
67185;SDS011;54116;53.518;49.398;2023-12-28T00:01:46;8.13;;;2.70;;
67185;SDS011;54116;53.518;49.398;2023-12-28T00:04:12;7.63;;;3.03;;
67185;SDS011;54116;53.518;49.398;2023-12-28T00:06:39;8.80;;;3.15;;
67185;SDS011;54116;53.518;49.398;2023-12-28T00:09:05;8.60;;;3.63;;
67185;SDS011;54116;53.518;49.398;2023-12-28T00:11:33;7.78;;;3.22;;
67185;SDS011;54116;53.518;49.398;2023-12-28T00:13:59;9.07;;;3.47;;
67185;SDS011;54116;53.518;49.398;2023-12-28T00:16:25;8.13;;;2.83;;
67185;SDS011;54116;53.518;49.398;2023-12-28T00:18:51;8.70;;;3.22;;
67185;SDS011;54116;53.518;49.398;2023-12-28T00:21:18;6.82;;;2.72;;
67185;SDS011;54116;53.518;49.398;2023-12-28T00:26:10;8.98;;;3.10;;
67185;SDS011;54116;53.518;49.398;2023-12-28T00:28:37;9.43;;;2.92;;
67185;SDS011;54116;53.518;49.398;2023-12-28T00:31:03;6.57;;;2.63;;
67185;SDS011;54116;53.518;49.398;2023-12-28T00:33:29;8.57;;;3.28;;
67185;SDS011;54116;53.518;49.398;2023-12-28T00:35:56;10.15;;;3.63;;
67185;SDS011;54116;53.518;49.398;2023-12-28T00:38:22;9.38;;;3.10;;
67185;SDS011;54116;53.518;49.398;2023-12-28T00:40:48;8.75;;;3.30;;
67185;SDS011;54116;53.518;49.398;2023-12-28T00:43:14;9.25;;;3.30;;
67185;SDS011;54116;53.518;49.398;2023-12-28T00:45:41;9.02;;;3.30;;
67185;SDS011;54116;53.518;49.398;2023-12-28T00:48:09;9.63;;;3.35;;
67185;SDS011;54116;53.518;49.398;2023-12-28T00:50:35;7.53;;;2.75;;
67185;SDS011;54116;53.518;49.398;2023-12-28T00:53:01;9.52;;;2.78;;
67185;SDS011;54116;53.518;49.398;2023-12-28T00:55:28;8.55;;;3.25;;
67185;SDS011;54116;53.518;49.398;2023-12-28T00:57:54;7.28;;;2.80;;
67185;SDS011;54116;53.518;49.398;2023-12-28T01:00:20;8.10;;;3.20;;
67185;SDS011;54116;53.518;49.398;2023-12-28T01:02:47;6.45;;;2.50;;
67185;SDS011;54116;53.518;49.398;2023-12-28T01:05:13;8.10;;;3.00;;
67185;SDS011;54116;53.518;49.398;2023-12-28T01:07:41;7.80;;;2.85;;
67185;SDS011;54116;53.518;49.398;2023-12-28T01:10:07;8.90;;;3.47;;
67185;SDS011;54116;53.518;49.398;2023-12-28T01:12:34;10.30;;;3.65;;
67185;SDS011;54116;53.518;49.398;2023-12-28T01:15:00;9.70;;;3.40;;
67185;SDS011;54116;53.518;49.398;2023-12-28T01:17:26;8.70;;;3.28;;
67185;SDS011;54116;53.518;49.398;2023-12-28T01:19:52;8.23;;;3.22;;
67185;SDS011;54116;53.518;49.398;2023-12-28T01:22:19;7.72;;;3.22;;
67185;SDS011;54116;53.518;49.398;2023-12-28T01:27:12;7.90;;;3.33;;
67185;SDS011;54116;53.518;49.398;2023-12-28T01:29:38;8.63;;;3.08;;
67185;SDS011;54116;53.518;49.398;2023-12-28T01:32:05;6.75;;;2.60;;
67185;SDS011;54116;53.518;49.398;2023-12-28T01:34:31;7.95;;;3.47;;
67185;SDS011;54116;53.518;49.398;2023-12-28T01:36:57;8.60;;;3.33;;
67185;SDS011;54116;53.518;49.398;2023-12-28T01:39:24;8.07;;;2.97;;
67185;SDS011;54116;53.518;49.398;2023-12-28T01:41:50;6.82;;;2.47;;
67185;SDS011;54116;53.518;49.398;2023-12-28T01:44:16;10.95;;;2.80;;
67185;SDS011;54116;53.518;49.398;2023-12-28T01:46:42;6.72;;;2.78;;
67185;SDS011;54116;53.518;49.398;2023-12-28T01:49:09;10.20;;;3.30;;
67185;SDS011;54116;53.518;49.398;2023-12-28T01:51:35;7.35;;;2.78;;
67185;SDS011;54116;53.518;49.398;2023-12-28T01:54:03;8.88;;;3.38;;
67185;SDS011;54116;53.518;49.398;2023-12-28T01:56:29;11.23;;;3.75;;
67185;SDS011;54116;53.518;49.398;2023-12-28T02:01:22;9.18;;;3.65;;
67185;SDS011;54116;53.518;49.398;2023-12-28T02:03:51;10.52;;;4.13;;
67185;SDS011;54116;53.518;49.398;2023-12-28T02:06:18;9.52;;;3.80;;
67185;SDS011;54116;53.518;49.398;2023-12-28T02:08:48;11.00;;;4.00;;
67185;SDS011;54116;53.518;49.398;2023-12-28T02:11:15;10.68;;;4.88;;
67185;SDS011;54116;53.518;49.398;2023-12-28T02:13:41;11.32;;;4.82;;
67185;SDS011;54116;53.518;49.398;2023-12-28T02:18:40;10.93;;;4.20;;
67185;SDS011;54116;53.518;49.398;2023-12-28T02:21:12;12.55;;;4.70;;
67185;SDS011;54116;53.518;49.398;2023-12-28T02:23:45;11.88;;;4.90;;
67185;SDS011;54116;53.518;49.398;2023-12-28T02:26:12;13.90;;;5.00;;
67185;SDS011;54116;53.518;49.398;2023-12-28T02:28:39;11.77;;;4.60;;
67185;SDS011;54116;53.518;49.398;2023-12-28T02:31:05;11.02;;;5.03;;
67185;SDS011;54116;53.518;49.398;2023-12-28T02:33:38;12.18;;;5.13;;
67185;SDS011;54116;53.518;49.398;2023-12-28T02:36:13;12.55;;;5.13;;
67185;SDS011;54116;53.518;49.398;2023-12-28T02:38:44;12.00;;;5.25;;
67185;SDS011;54116;53.518;49.398;2023-12-28T02:41:14;11.32;;;4.53;;
67185;SDS011;54116;53.518;49.398;2023-12-28T02:43:42;12.15;;;5.40;;
67185;SDS011;54116;53.518;49.398;2023-12-28T02:46:08;12.73;;;4.65;;
67185;SDS011;54116;53.518;49.398;2023-12-28T02:48:34;10.30;;;4.15;;
67185;SDS011;54116;53.518;49.398;2023-12-28T02:51:00;11.80;;;4.80;;
67185;SDS011;54116;53.518;49.398;2023-12-28T02:53:26;11.82;;;4.00;;
67185;SDS011;54116;53.518;49.398;2023-12-28T02:55:53;10.80;;;4.15;;
67185;SDS011;54116;53.518;49.398;2023-12-28T02:58:19;10.63;;;4.20;;
67185;SDS011;54116;53.518;49.398;2023-12-28T03:00:45;9.57;;;3.70;;
67185;SDS011;54116;53.518;49.398;2023-12-28T03:03:11;11.65;;;3.75;;
67185;SDS011;54116;53.518;49.398;2023-12-28T03:05:37;9.45;;;3.90;;
67185;SDS011;54116;53.518;49.398;2023-12-28T03:08:03;10.82;;;3.97;;
67185;SDS011;54116;53.518;49.398;2023-12-28T03:10:30;11.65;;;4.18;;
67185;SDS011;54116;53.518;49.398;2023-12-28T03:12:56;10.30;;;4.40;;
67185;SDS011;54116;53.518;49.398;2023-12-28T03:17:49;12.68;;;4.25;;
67185;SDS011;54116;53.518;49.398;2023-12-28T03:20:15;10.25;;;4.15;;
67185;SDS011;54116;53.518;49.398;2023-12-28T03:22:41;13.07;;;4.43;;
67185;SDS011;54116;53.518;49.398;2023-12-28T03:27:34;10.43;;;3.50;;
67185;SDS011;54116;53.518;49.398;2023-12-28T03:30:00;14.75;;;4.15;;
67185;SDS011;54116;53.518;49.398;2023-12-28T03:32:26;11.50;;;4.80;;
67185;SDS011;54116;53.518;49.398;2023-12-28T03:34:52;11.32;;;4.70;;
67185;SDS011;54116;53.518;49.398;2023-12-28T03:37:18;11.50;;;4.07;;
67185;SDS011;54116;53.518;49.398;2023-12-28T03:39:44;9.68;;;3.65;;
67185;SDS011;54116;53.518;49.398;2023-12-28T03:44:38;9.68;;;3.45;;
67185;SDS011;54116;53.518;49.398;2023-12-28T03:47:04;9.68;;;3.65;;
67185;SDS011;54116;53.518;49.398;2023-12-28T03:49:30;8.30;;;3.20;;
67185;SDS011;54116;53.518;49.398;2023-12-28T03:51:56;11.43;;;3.83;;
67185;SDS011;54116;53.518;49.398;2023-12-28T03:54:22;10.15;;;3.67;;
67185;SDS011;54116;53.518;49.398;2023-12-28T03:56:48;12.00;;;3.85;;
67185;SDS011;54116;53.518;49.398;2023-12-28T03:59:14;9.65;;;3.72;;
67185;SDS011;54116;53.518;49.398;2023-12-28T04:01:40;11.68;;;3.47;;
67185;SDS011;54116;53.518;49.398;2023-12-28T04:04:07;13.13;;;4.03;;
67185;SDS011;54116;53.518;49.398;2023-12-28T04:06:34;10.27;;;3.95;;
67185;SDS011;54116;53.518;49.398;2023-12-28T04:09:00;11.32;;;4.25;;
67185;SDS011;54116;53.518;49.398;2023-12-28T04:11:26;8.63;;;3.30;;
67185;SDS011;54116;53.518;49.398;2023-12-28T04:13:52;10.90;;;3.65;;
67185;SDS011;54116;53.518;49.398;2023-12-28T04:16:18;12.60;;;3.50;;
67185;SDS011;54116;53.518;49.398;2023-12-28T04:18:44;9.85;;;3.83;;
67185;SDS011;54116;53.518;49.398;2023-12-28T04:21:10;11.50;;;3.00;;
67185;SDS011;54116;53.518;49.398;2023-12-28T04:23:38;12.38;;;4.05;;
67185;SDS011;54116;53.518;49.398;2023-12-28T04:26:06;13.38;;;3.53;;
67185;SDS011;54116;53.518;49.398;2023-12-28T04:28:32;8.35;;;2.88;;
67185;SDS011;54116;53.518;49.398;2023-12-28T04:31:05;8.90;;;3.08;;
67185;SDS011;54116;53.518;49.398;2023-12-28T04:33:32;8.70;;;3.17;;
67185;SDS011;54116;53.518;49.398;2023-12-28T04:36:01;9.57;;;3.10;;
67185;SDS011;54116;53.518;49.398;2023-12-28T04:38:31;9.70;;;3.35;;
67185;SDS011;54116;53.518;49.398;2023-12-28T04:40:58;9.20;;;3.13;;
67185;SDS011;54116;53.518;49.398;2023-12-28T04:43:25;9.93;;;4.00;;
67185;SDS011;54116;53.518;49.398;2023-12-28T04:45:52;11.77;;;3.80;;
67185;SDS011;54116;53.518;49.398;2023-12-28T04:48:18;10.63;;;3.83;;
67185;SDS011;54116;53.518;49.398;2023-12-28T04:50:49;9.63;;;3.42;;
67185;SDS011;54116;53.518;49.398;2023-12-28T04:53:16;9.35;;;3.63;;
67185;SDS011;54116;53.518;49.398;2023-12-28T04:55:42;10.07;;;3.85;;
67185;SDS011;54116;53.518;49.398;2023-12-28T04:58:10;12.50;;;4.10;;
67185;SDS011;54116;53.518;49.398;2023-12-28T05:00:36;10.55;;;4.07;;
67185;SDS011;54116;53.518;49.398;2023-12-28T05:03:03;11.70;;;4.00;;
67185;SDS011;54116;53.518;49.398;2023-12-28T05:05:29;13.27;;;4.47;;
67185;SDS011;54116;53.518;49.398;2023-12-28T05:07:55;11.70;;;4.95;;
67185;SDS011;54116;53.518;49.398;2023-12-28T05:10:22;12.57;;;4.95;;
67185;SDS011;54116;53.518;49.398;2023-12-28T05:12:48;15.85;;;5.53;;
67185;SDS011;54116;53.518;49.398;2023-12-28T05:15:14;13.20;;;4.78;;
67185;SDS011;54116;53.518;49.398;2023-12-28T05:17:41;12.18;;;4.60;;
67185;SDS011;54116;53.518;49.398;2023-12-28T05:20:07;15.05;;;5.28;;
67185;SDS011;54116;53.518;49.398;2023-12-28T05:22:34;14.23;;;5.22;;
67185;SDS011;54116;53.518;49.398;2023-12-28T05:25:00;12.68;;;4.85;;
67185;SDS011;54116;53.518;49.398;2023-12-28T05:27:26;14.15;;;5.30;;
67185;SDS011;54116;53.518;49.398;2023-12-28T05:29:52;17.40;;;6.00;;
67185;SDS011;54116;53.518;49.398;2023-12-28T05:32:18;14.93;;;5.85;;
67185;SDS011;54116;53.518;49.398;2023-12-28T05:34:45;16.48;;;5.78;;
67185;SDS011;54116;53.518;49.398;2023-12-28T05:37:11;16.70;;;6.35;;
67185;SDS011;54116;53.518;49.398;2023-12-28T05:39:37;15.02;;;6.50;;
67185;SDS011;54116;53.518;49.398;2023-12-28T05:42:04;13.52;;;5.47;;
67185;SDS011;54116;53.518;49.398;2023-12-28T05:44:31;15.60;;;5.68;;
67185;SDS011;54116;53.518;49.398;2023-12-28T05:47:13;17.48;;;6.63;;
67185;SDS011;54116;53.518;49.398;2023-12-28T05:49:40;18.02;;;6.40;;
67185;SDS011;54116;53.518;49.398;2023-12-28T05:52:06;16.65;;;6.40;;
67185;SDS011;54116;53.518;49.398;2023-12-28T05:54:32;15.65;;;6.10;;
67185;SDS011;54116;53.518;49.398;2023-12-28T05:56:58;14.13;;;6.07;;
67185;SDS011;54116;53.518;49.398;2023-12-28T05:59:24;19.20;;;7.05;;
67185;SDS011;54116;53.518;49.398;2023-12-28T06:01:51;20.90;;;7.07;;
67185;SDS011;54116;53.518;49.398;2023-12-28T06:04:17;18.30;;;7.57;;
67185;SDS011;54116;53.518;49.398;2023-12-28T06:06:43;20.27;;;7.93;;
67185;SDS011;54116;53.518;49.398;2023-12-28T06:09:09;19.92;;;6.80;;
67185;SDS011;54116;53.518;49.398;2023-12-28T06:11:37;17.25;;;7.07;;
67185;SDS011;54116;53.518;49.398;2023-12-28T06:14:03;14.15;;;6.30;;
67185;SDS011;54116;53.518;49.398;2023-12-28T06:16:29;17.75;;;7.55;;
67185;SDS011;54116;53.518;49.398;2023-12-28T06:18:58;18.42;;;7.28;;
67185;SDS011;54116;53.518;49.398;2023-12-28T06:21:25;16.05;;;7.20;;
67185;SDS011;54116;53.518;49.398;2023-12-28T06:23:52;17.83;;;7.43;;
67185;SDS011;54116;53.518;49.398;2023-12-28T06:26:19;18.85;;;7.13;;
67185;SDS011;54116;53.518;49.398;2023-12-28T06:28:45;18.55;;;7.45;;
67185;SDS011;54116;53.518;49.398;2023-12-28T06:31:11;19.13;;;6.45;;
67185;SDS011;54116;53.518;49.398;2023-12-28T06:33:37;14.73;;;5.13;;
67185;SDS011;54116;53.518;49.398;2023-12-28T06:40:58;16.83;;;6.00;;
67185;SDS011;54116;53.518;49.398;2023-12-28T06:43:25;13.07;;;5.57;;
67185;SDS011;54116;53.518;49.398;2023-12-28T06:45:51;14.05;;;5.93;;
67185;SDS011;54116;53.518;49.398;2023-12-28T06:48:18;15.57;;;6.18;;
67185;SDS011;54116;53.518;49.398;2023-12-28T06:50:44;15.98;;;5.95;;
67185;SDS011;54116;53.518;49.398;2023-12-28T06:53:11;15.45;;;5.55;;
67185;SDS011;54116;53.518;49.398;2023-12-28T06:55:37;14.50;;;4.53;;
67185;SDS011;54116;53.518;49.398;2023-12-28T06:58:03;14.93;;;5.50;;
67185;SDS011;54116;53.518;49.398;2023-12-28T07:00:31;14.40;;;5.80;;
67185;SDS011;54116;53.518;49.398;2023-12-28T07:02:58;17.33;;;5.80;;
67185;SDS011;54116;53.518;49.398;2023-12-28T07:05:24;12.80;;;5.03;;
67185;SDS011;54116;53.518;49.398;2023-12-28T07:07:50;14.27;;;5.88;;
67185;SDS011;54116;53.518;49.398;2023-12-28T07:10:18;14.82;;;5.55;;
67185;SDS011;54116;53.518;49.398;2023-12-28T07:12:44;14.32;;;5.85;;
67185;SDS011;54116;53.518;49.398;2023-12-28T07:15:10;12.55;;;4.70;;
67185;SDS011;54116;53.518;49.398;2023-12-28T07:17:40;14.15;;;5.28;;
67185;SDS011;54116;53.518;49.398;2023-12-28T07:20:06;15.48;;;5.40;;
67185;SDS011;54116;53.518;49.398;2023-12-28T07:22:36;15.73;;;5.78;;
67185;SDS011;54116;53.518;49.398;2023-12-28T07:25:04;11.13;;;4.50;;
67185;SDS011;54116;53.518;49.398;2023-12-28T07:27:32;11.10;;;4.20;;
67185;SDS011;54116;53.518;49.398;2023-12-28T07:29:59;15.50;;;5.38;;
67185;SDS011;54116;53.518;49.398;2023-12-28T07:32:26;11.15;;;4.07;;
67185;SDS011;54116;53.518;49.398;2023-12-28T07:34:54;11.50;;;4.28;;
67185;SDS011;54116;53.518;49.398;2023-12-28T07:37:20;12.70;;;5.20;;
67185;SDS011;54116;53.518;49.398;2023-12-28T07:39:47;13.43;;;4.38;;
67185;SDS011;54116;53.518;49.398;2023-12-28T07:44:39;9.15;;;3.50;;
67185;SDS011;54116;53.518;49.398;2023-12-28T07:47:05;12.27;;;4.28;;
67185;SDS011;54116;53.518;49.398;2023-12-28T07:49:31;13.30;;;4.93;;
67185;SDS011;54116;53.518;49.398;2023-12-28T07:51:58;10.88;;;4.40;;
67185;SDS011;54116;53.518;49.398;2023-12-28T07:54:24;11.05;;;4.40;;
67185;SDS011;54116;53.518;49.398;2023-12-28T07:56:50;12.07;;;4.18;;
67185;SDS011;54116;53.518;49.398;2023-12-28T07:59:16;13.93;;;4.60;;
67185;SDS011;54116;53.518;49.398;2023-12-28T08:01:42;9.45;;;4.05;;
67185;SDS011;54116;53.518;49.398;2023-12-28T08:04:08;9.48;;;3.53;;
67185;SDS011;54116;53.518;49.398;2023-12-28T08:06:34;12.40;;;4.40;;
67185;SDS011;54116;53.518;49.398;2023-12-28T08:09:00;11.43;;;4.07;;
67185;SDS011;54116;53.518;49.398;2023-12-28T08:11:26;11.38;;;4.20;;
67185;SDS011;54116;53.518;49.398;2023-12-28T08:13:53;11.85;;;4.57;;
67185;SDS011;54116;53.518;49.398;2023-12-28T08:16:19;11.30;;;4.30;;
67185;SDS011;54116;53.518;49.398;2023-12-28T08:18:46;11.75;;;4.70;;
67185;SDS011;54116;53.518;49.398;2023-12-28T08:21:12;10.32;;;3.78;;
67185;SDS011;54116;53.518;49.398;2023-12-28T08:23:39;10.52;;;4.07;;
67185;SDS011;54116;53.518;49.398;2023-12-28T08:26:05;12.23;;;4.95;;
67185;SDS011;54116;53.518;49.398;2023-12-28T08:28:33;10.30;;;3.80;;
67185;SDS011;54116;53.518;49.398;2023-12-28T08:30:59;10.98;;;4.35;;
67185;SDS011;54116;53.518;49.398;2023-12-28T08:33:25;12.10;;;4.80;;
67185;SDS011;54116;53.518;49.398;2023-12-28T08:35:52;9.18;;;3.33;;
67185;SDS011;54116;53.518;49.398;2023-12-28T08:38:18;10.18;;;3.42;;
67185;SDS011;54116;53.518;49.398;2023-12-28T08:40:44;12.27;;;4.20;;
67185;SDS011;54116;53.518;49.398;2023-12-28T08:45:38;10.27;;;4.07;;
67185;SDS011;54116;53.518;49.398;2023-12-28T08:48:04;10.73;;;3.22;;
67185;SDS011;54116;53.518;49.398;2023-12-28T08:50:31;10.88;;;4.45;;
67185;SDS011;54116;53.518;49.398;2023-12-28T08:52:57;12.07;;;3.97;;
67185;SDS011;54116;53.518;49.398;2023-12-28T08:55:23;8.82;;;3.60;;
67185;SDS011;54116;53.518;49.398;2023-12-28T08:57:50;10.43;;;3.92;;
67185;SDS011;54116;53.518;49.398;2023-12-28T09:00:16;11.25;;;4.30;;
67185;SDS011;54116;53.518;49.398;2023-12-28T09:02:43;9.35;;;3.90;;
67185;SDS011;54116;53.518;49.398;2023-12-28T09:05:09;10.93;;;4.43;;
67185;SDS011;54116;53.518;49.398;2023-12-28T09:10:12;9.38;;;3.83;;
67185;SDS011;54116;53.518;49.398;2023-12-28T09:12:40;10.75;;;4.00;;
67185;SDS011;54116;53.518;49.398;2023-12-28T09:15:07;11.25;;;3.63;;
67185;SDS011;54116;53.518;49.398;2023-12-28T09:17:34;11.30;;;3.88;;
67185;SDS011;54116;53.518;49.398;2023-12-28T09:20:01;10.55;;;3.45;;
67185;SDS011;54116;53.518;49.398;2023-12-28T09:22:28;10.35;;;4.10;;
67185;SDS011;54116;53.518;49.398;2023-12-28T09:24:54;9.98;;;3.75;;
67185;SDS011;54116;53.518;49.398;2023-12-28T09:27:20;10.77;;;4.15;;
67185;SDS011;54116;53.518;49.398;2023-12-28T09:29:47;9.45;;;3.83;;
67185;SDS011;54116;53.518;49.398;2023-12-28T09:32:13;10.70;;;3.08;;
67185;SDS011;54116;53.518;49.398;2023-12-28T09:34:40;7.70;;;3.45;;
67185;SDS011;54116;53.518;49.398;2023-12-28T09:37:06;7.10;;;2.72;;
67185;SDS011;54116;53.518;49.398;2023-12-28T09:39:32;9.50;;;3.83;;
67185;SDS011;54116;53.518;49.398;2023-12-28T09:42:09;13.05;;;4.22;;
67185;SDS011;54116;53.518;49.398;2023-12-28T09:44:43;7.15;;;2.88;;
67185;SDS011;54116;53.518;49.398;2023-12-28T09:47:09;9.10;;;3.67;;
67185;SDS011;54116;53.518;49.398;2023-12-28T09:49:38;9.88;;;3.90;;
67185;SDS011;54116;53.518;49.398;2023-12-28T09:52:06;8.43;;;3.13;;
67185;SDS011;54116;53.518;49.398;2023-12-28T09:54:32;8.32;;;3.17;;
67185;SDS011;54116;53.518;49.398;2023-12-28T09:56:58;9.32;;;3.65;;
67185;SDS011;54116;53.518;49.398;2023-12-28T09:59:24;9.90;;;4.13;;
67185;SDS011;54116;53.518;49.398;2023-12-28T10:01:51;8.10;;;2.85;;
67185;SDS011;54116;53.518;49.398;2023-12-28T10:04:20;8.00;;;3.42;;
67185;SDS011;54116;53.518;49.398;2023-12-28T10:06:47;9.50;;;3.75;;
67185;SDS011;54116;53.518;49.398;2023-12-28T10:09:13;9.80;;;3.55;;
67185;SDS011;54116;53.518;49.398;2023-12-28T10:11:39;9.35;;;3.83;;
67185;SDS011;54116;53.518;49.398;2023-12-28T10:14:06;10.20;;;3.78;;
67185;SDS011;54116;53.518;49.398;2023-12-28T10:16:32;7.50;;;3.28;;
67185;SDS011;54116;53.518;49.398;2023-12-28T10:18:59;9.55;;;3.28;;
67185;SDS011;54116;53.518;49.398;2023-12-28T10:21:25;6.95;;;2.75;;
67185;SDS011;54116;53.518;49.398;2023-12-28T10:23:51;12.35;;;3.88;;
67185;SDS011;54116;53.518;49.398;2023-12-28T10:26:17;10.93;;;4.40;;
67185;SDS011;54116;53.518;49.398;2023-12-28T10:28:44;11.88;;;5.22;;
67185;SDS011;54116;53.518;49.398;2023-12-28T10:31:10;10.27;;;3.80;;
67185;SDS011;54116;53.518;49.398;2023-12-28T10:33:37;8.25;;;3.63;;
67185;SDS011;54116;53.518;49.398;2023-12-28T10:36:07;7.93;;;3.33;;
67185;SDS011;54116;53.518;49.398;2023-12-28T10:38:34;10.98;;;4.10;;
67185;SDS011;54116;53.518;49.398;2023-12-28T10:41:06;8.00;;;3.47;;
67185;SDS011;54116;53.518;49.398;2023-12-28T10:43:45;8.95;;;3.40;;
67185;SDS011;54116;53.518;49.398;2023-12-28T10:46:22;9.27;;;3.88;;
67185;SDS011;54116;53.518;49.398;2023-12-28T10:48:58;10.57;;;4.03;;
67185;SDS011;54116;53.518;49.398;2023-12-28T10:51:26;8.95;;;3.58;;
67185;SDS011;54116;53.518;49.398;2023-12-28T10:54:11;8.40;;;3.22;;
67185;SDS011;54116;53.518;49.398;2023-12-28T11:00:16;10.15;;;4.00;;
67185;SDS011;54116;53.518;49.398;2023-12-28T11:02:50;7.38;;;2.97;;
67185;SDS011;54116;53.518;49.398;2023-12-28T11:05:21;13.75;;;3.67;;
67185;SDS011;54116;53.518;49.398;2023-12-28T11:07:49;8.32;;;3.40;;
67185;SDS011;54116;53.518;49.398;2023-12-28T11:10:19;8.48;;;3.53;;
67185;SDS011;54116;53.518;49.398;2023-12-28T11:12:48;8.32;;;3.45;;
67185;SDS011;54116;53.518;49.398;2023-12-28T11:15:19;9.00;;;3.08;;
67185;SDS011;54116;53.518;49.398;2023-12-28T11:17:46;8.65;;;3.45;;
67185;SDS011;54116;53.518;49.398;2023-12-28T11:20:13;8.40;;;2.97;;
67185;SDS011;54116;53.518;49.398;2023-12-28T11:27:40;6.35;;;2.38;;
67185;SDS011;54116;53.518;49.398;2023-12-28T11:30:06;9.00;;;3.58;;
67185;SDS011;54116;53.518;49.398;2023-12-28T11:32:35;9.38;;;3.78;;
67185;SDS011;54116;53.518;49.398;2023-12-28T11:35:02;9.48;;;3.47;;
67185;SDS011;54116;53.518;49.398;2023-12-28T11:37:32;11.00;;;3.97;;
67185;SDS011;54116;53.518;49.398;2023-12-28T11:40:08;9.43;;;3.50;;
67185;SDS011;54116;53.518;49.398;2023-12-28T11:42:35;8.73;;;3.15;;
67185;SDS011;54116;53.518;49.398;2023-12-28T11:45:02;8.95;;;3.40;;
67185;SDS011;54116;53.518;49.398;2023-12-28T11:47:28;9.45;;;3.25;;
67185;SDS011;54116;53.518;49.398;2023-12-28T11:49:55;7.45;;;3.05;;
67185;SDS011;54116;53.518;49.398;2023-12-28T11:52:31;8.93;;;3.35;;
67185;SDS011;54116;53.518;49.398;2023-12-28T11:54:58;8.05;;;2.80;;
67185;SDS011;54116;53.518;49.398;2023-12-28T11:57:26;6.82;;;3.17;;
67185;SDS011;54116;53.518;49.398;2023-12-28T11:59:55;9.98;;;3.13;;
67185;SDS011;54116;53.518;49.398;2023-12-28T12:02:22;8.55;;;3.78;;
67185;SDS011;54116;53.518;49.398;2023-12-28T12:04:55;7.90;;;3.22;;
67185;SDS011;54116;53.518;49.398;2023-12-28T12:07:27;8.80;;;3.38;;
67185;SDS011;54116;53.518;49.398;2023-12-28T12:09:59;9.98;;;3.45;;
67185;SDS011;54116;53.518;49.398;2023-12-28T12:12:25;8.00;;;3.30;;
67185;SDS011;54116;53.518;49.398;2023-12-28T12:17:18;7.20;;;2.75;;
67185;SDS011;54116;53.518;49.398;2023-12-28T12:19:44;9.45;;;3.33;;
67185;SDS011;54116;53.518;49.398;2023-12-28T12:22:15;8.73;;;3.22;;
67185;SDS011;54116;53.518;49.398;2023-12-28T12:24:43;10.23;;;3.55;;
67185;SDS011;54116;53.518;49.398;2023-12-28T12:27:11;8.30;;;3.72;;
67185;SDS011;54116;53.518;49.398;2023-12-28T12:29:38;9.25;;;3.33;;
67185;SDS011;54116;53.518;49.398;2023-12-28T12:32:04;9.10;;;3.17;;
67185;SDS011;54116;53.518;49.398;2023-12-28T12:34:33;10.48;;;4.35;;
67185;SDS011;54116;53.518;49.398;2023-12-28T12:37:00;9.55;;;3.17;;
67185;SDS011;54116;53.518;49.398;2023-12-28T12:39:27;8.48;;;3.58;;
67185;SDS011;54116;53.518;49.398;2023-12-28T12:41:53;16.30;;;3.83;;
67185;SDS011;54116;53.518;49.398;2023-12-28T12:44:23;8.55;;;3.53;;
67185;SDS011;54116;53.518;49.398;2023-12-28T12:46:56;9.65;;;3.53;;
67185;SDS011;54116;53.518;49.398;2023-12-28T12:49:23;6.55;;;2.63;;
67185;SDS011;54116;53.518;49.398;2023-12-28T12:51:50;9.43;;;3.20;;
67185;SDS011;54116;53.518;49.398;2023-12-28T12:56:47;7.60;;;3.42;;
67185;SDS011;54116;53.518;49.398;2023-12-28T12:59:15;8.43;;;3.00;;
67185;SDS011;54116;53.518;49.398;2023-12-28T13:01:44;6.10;;;2.80;;
67185;SDS011;54116;53.518;49.398;2023-12-28T13:04:18;8.05;;;2.85;;
67185;SDS011;54116;53.518;49.398;2023-12-28T13:06:45;8.93;;;3.65;;
67185;SDS011;54116;53.518;49.398;2023-12-28T13:09:11;11.07;;;3.35;;
67185;SDS011;54116;53.518;49.398;2023-12-28T13:11:38;8.07;;;3.28;;
67185;SDS011;54116;53.518;49.398;2023-12-28T13:16:30;7.63;;;3.30;;
67185;SDS011;54116;53.518;49.398;2023-12-28T13:18:57;5.50;;;2.60;;
67185;SDS011;54116;53.518;49.398;2023-12-28T13:21:23;7.40;;;2.30;;
67185;SDS011;54116;53.518;49.398;2023-12-28T13:23:50;6.22;;;2.20;;
67185;SDS011;54116;53.518;49.398;2023-12-28T13:26:16;6.90;;;2.00;;
67185;SDS011;54116;53.518;49.398;2023-12-28T13:28:42;5.78;;;2.30;;
67185;SDS011;54116;53.518;49.398;2023-12-28T13:31:09;6.38;;;2.20;;
67185;SDS011;54116;53.518;49.398;2023-12-28T13:33:35;5.78;;;2.00;;
67185;SDS011;54116;53.518;49.398;2023-12-28T13:36:01;6.38;;;2.45;;
67185;SDS011;54116;53.518;49.398;2023-12-28T13:40:54;6.22;;;2.17;;
67185;SDS011;54116;53.518;49.398;2023-12-28T13:43:21;6.18;;;2.30;;
67185;SDS011;54116;53.518;49.398;2023-12-28T13:45:47;7.90;;;2.88;;
67185;SDS011;54116;53.518;49.398;2023-12-28T13:48:13;6.40;;;2.42;;
67185;SDS011;54116;53.518;49.398;2023-12-28T13:50:39;6.47;;;2.05;;
67185;SDS011;54116;53.518;49.398;2023-12-28T13:53:05;6.53;;;2.50;;
67185;SDS011;54116;53.518;49.398;2023-12-28T13:55:33;5.60;;;1.52;;
67185;SDS011;54116;53.518;49.398;2023-12-28T13:58:00;7.07;;;2.85;;
67185;SDS011;54116;53.518;49.398;2023-12-28T14:00:28;4.95;;;1.55;;
67185;SDS011;54116;53.518;49.398;2023-12-28T14:02:54;7.40;;;2.67;;
67185;SDS011;54116;53.518;49.398;2023-12-28T14:05:20;8.32;;;2.45;;
67185;SDS011;54116;53.518;49.398;2023-12-28T14:07:49;5.82;;;1.80;;
67185;SDS011;54116;53.518;49.398;2023-12-28T14:10:15;6.22;;;2.42;;
67185;SDS011;54116;53.518;49.398;2023-12-28T14:12:41;6.05;;;2.25;;
67185;SDS011;54116;53.518;49.398;2023-12-28T14:15:08;7.38;;;2.38;;
67185;SDS011;54116;53.518;49.398;2023-12-28T14:17:34;5.78;;;2.17;;
67185;SDS011;54116;53.518;49.398;2023-12-28T14:20:01;8.05;;;3.05;;
67185;SDS011;54116;53.518;49.398;2023-12-28T14:22:29;6.32;;;2.50;;
67185;SDS011;54116;53.518;49.398;2023-12-28T14:24:56;6.53;;;2.50;;
67185;SDS011;54116;53.518;49.398;2023-12-28T14:27:22;5.93;;;2.28;;
67185;SDS011;54116;53.518;49.398;2023-12-28T14:32:17;6.97;;;2.65;;
67185;SDS011;54116;53.518;49.398;2023-12-28T14:34:44;5.95;;;2.00;;
67185;SDS011;54116;53.518;49.398;2023-12-28T14:37:10;7.22;;;2.63;;
67185;SDS011;54116;53.518;49.398;2023-12-28T14:39:36;7.70;;;2.88;;
67185;SDS011;54116;53.518;49.398;2023-12-28T14:42:03;7.90;;;2.80;;
67185;SDS011;54116;53.518;49.398;2023-12-28T14:44:29;6.40;;;2.25;;
67185;SDS011;54116;53.518;49.398;2023-12-28T14:46:56;8.75;;;3.33;;
67185;SDS011;54116;53.518;49.398;2023-12-28T14:49:23;6.72;;;2.55;;
67185;SDS011;54116;53.518;49.398;2023-12-28T14:51:49;6.43;;;2.10;;
67185;SDS011;54116;53.518;49.398;2023-12-28T14:54:15;4.93;;;1.88;;
67185;SDS011;54116;53.518;49.398;2023-12-28T14:56:41;6.93;;;2.67;;
67185;SDS011;54116;53.518;49.398;2023-12-28T14:59:07;6.75;;;2.70;;
67185;SDS011;54116;53.518;49.398;2023-12-28T15:01:33;6.78;;;2.47;;
67185;SDS011;54116;53.518;49.398;2023-12-28T15:03:59;10.00;;;2.90;;
67185;SDS011;54116;53.518;49.398;2023-12-28T15:06:26;7.50;;;2.58;;
67185;SDS011;54116;53.518;49.398;2023-12-28T15:11:18;7.40;;;2.45;;
67185;SDS011;54116;53.518;49.398;2023-12-28T15:13:45;6.78;;;2.33;;
67185;SDS011;54116;53.518;49.398;2023-12-28T15:16:11;6.38;;;1.92;;
67185;SDS011;54116;53.518;49.398;2023-12-28T15:18:38;7.03;;;2.28;;
67185;SDS011;54116;53.518;49.398;2023-12-28T15:21:05;7.20;;;2.58;;